createdAt,value
2018-07-03T00:01:00.721Z,16.00
2018-07-03T00:03:28.985Z,15.90
2018-07-03T00:05:57.265Z,15.90
2018-07-03T00:08:25.537Z,15.80
2018-07-03T00:10:53.825Z,15.70
2018-07-03T00:19:40.442Z,15.50
2018-07-03T00:22:20.861Z,15.50
2018-07-03T00:25:07.985Z,15.40
2018-07-03T00:27:36.302Z,15.40
2018-07-03T00:30:04.836Z,15.30
2018-07-03T00:32:33.159Z,15.40
2018-07-03T00:35:01.469Z,15.40
2018-07-03T00:37:29.776Z,15.30
2018-07-03T00:39:58.100Z,15.20
2018-07-03T00:42:26.405Z,15.20
2018-07-03T00:44:54.783Z,15.10
2018-07-03T00:47:23.087Z,15.10
2018-07-03T00:49:51.409Z,15.10
2018-07-03T00:52:19.746Z,15.10
2018-07-03T00:54:48.020Z,15.10
2018-07-03T00:57:16.310Z,15.20
2018-07-03T00:59:58.634Z,15.20
2018-07-03T01:02:26.926Z,15.20
2018-07-03T01:04:55.241Z,15.20
2018-07-03T01:07:23.529Z,15.20
2018-07-03T01:09:51.816Z,15.20
2018-07-03T01:12:20.148Z,15.10
2018-07-03T02:20:47.257Z,14.90
2018-07-03T02:26:08.665Z,15.00
2018-07-03T02:28:36.986Z,15.00
2018-07-03T02:31:05.309Z,14.90
2018-07-03T02:33:33.641Z,14.90
2018-07-03T02:36:01.965Z,14.90
2018-07-03T02:38:30.322Z,14.80
2018-07-03T02:40:58.666Z,14.80
2018-07-03T02:43:26.966Z,14.70
2018-07-03T02:45:55.279Z,14.60
2018-07-03T02:48:23.590Z,14.60
2018-07-03T02:50:51.917Z,14.60
2018-07-03T02:53:20.225Z,14.50
2018-07-03T02:55:48.497Z,14.60
2018-07-03T02:58:16.750Z,14.70
2018-07-03T03:00:45.023Z,14.70
2018-07-03T03:03:13.305Z,14.70
2018-07-03T03:05:41.604Z,14.60
2018-07-03T03:08:09.934Z,14.50
2018-07-03T03:10:38.218Z,14.50
2018-07-03T03:13:06.505Z,14.50
2018-07-03T03:15:34.785Z,14.50
2018-07-03T03:21:08.050Z,14.60
2018-07-03T03:23:36.343Z,14.50
2018-07-03T03:26:04.754Z,14.50
2018-07-03T03:28:33.050Z,14.40
2018-07-03T03:31:01.368Z,14.40
2018-07-03T03:33:29.680Z,14.40
2018-07-03T03:35:57.950Z,14.40
2018-07-03T03:38:26.255Z,14.40
2018-07-03T03:40:54.526Z,14.40
2018-07-03T03:43:22.787Z,14.50
2018-07-03T03:45:51.058Z,14.60
2018-07-03T03:48:19.330Z,14.60
2018-07-03T03:50:47.623Z,14.60
2018-07-03T03:53:15.889Z,14.60
2018-07-03T03:55:44.154Z,14.70
2018-07-03T03:58:12.468Z,14.70
2018-07-03T04:00:40.789Z,14.80
2018-07-03T04:03:09.068Z,14.90
2018-07-03T04:05:37.354Z,14.90
2018-07-03T04:08:05.619Z,14.90
2018-07-03T04:10:33.902Z,14.90
2018-07-03T04:13:02.293Z,15.00
2018-07-03T04:18:27.497Z,15.10
2018-07-03T04:20:55.749Z,15.10
2018-07-03T05:14:51.565Z,16.90
2018-07-03T05:17:19.953Z,17.00
2018-07-03T05:25:33.725Z,17.40
2018-07-03T05:28:02.036Z,17.50
2018-07-03T05:30:30.348Z,17.60
2018-07-03T05:32:58.722Z,17.60
2018-07-03T05:35:27.037Z,17.70
2018-07-03T05:37:55.338Z,17.80
2018-07-03T05:40:23.679Z,17.90
2018-07-03T05:42:52.080Z,17.90
2018-07-03T05:45:20.401Z,18.00
2018-07-03T05:47:48.788Z,18.00
2018-07-03T05:50:17.074Z,18.10
2018-07-03T05:52:45.342Z,18.20
2018-07-03T05:55:13.645Z,18.30
2018-07-03T05:57:41.940Z,18.40
2018-07-03T06:00:10.234Z,18.50
2018-07-03T06:02:38.519Z,18.50
2018-07-03T06:05:06.803Z,18.60
2018-07-03T06:07:35.113Z,18.70
2018-07-03T06:10:03.470Z,18.80
2018-07-03T06:21:19.446Z,19.10
2018-07-03T06:26:41.061Z,19.30
2018-07-03T06:29:09.381Z,19.40
2018-07-03T06:31:37.706Z,19.50
2018-07-03T06:34:06.089Z,19.50
2018-07-03T06:36:34.430Z,19.60
2018-07-03T06:39:02.751Z,19.60
2018-07-03T06:41:31.059Z,19.70
2018-07-03T06:43:59.374Z,19.70
2018-07-03T06:46:27.685Z,19.80
2018-07-03T06:48:56.021Z,19.80
2018-07-03T06:51:24.338Z,19.80
2018-07-03T06:53:52.688Z,19.80
2018-07-03T06:56:20.961Z,19.90
2018-07-03T06:58:49.225Z,20.00
2018-07-03T07:01:17.502Z,20.00
2018-07-03T07:03:45.785Z,20.10
2018-07-03T07:06:14.113Z,20.10
2018-07-03T07:08:42.476Z,20.20
2018-07-03T07:11:10.713Z,20.30
2018-07-03T07:13:39.009Z,20.40
2018-07-03T08:16:26.155Z,22.00
2018-07-03T08:19:01.142Z,22.10
2018-07-03T08:24:22.961Z,22.20
2018-07-03T08:26:55.117Z,22.20
2018-07-03T08:29:23.429Z,22.20
2018-07-03T08:31:51.751Z,22.30
2018-07-03T08:34:20.098Z,22.30
2018-07-03T08:36:48.432Z,22.50
2018-07-03T08:39:16.764Z,22.50
2018-07-03T08:41:45.070Z,22.50
2018-07-03T08:44:13.365Z,22.60
2018-07-03T08:46:41.690Z,22.70
2018-07-03T08:49:09.986Z,22.60
2018-07-03T08:51:38.487Z,22.80
2018-07-03T08:54:06.839Z,22.90
2018-07-03T08:56:35.123Z,23.00
2018-07-03T08:59:04.469Z,23.10
2018-07-03T09:01:32.785Z,23.10
2018-07-03T09:04:01.085Z,23.20
2018-07-03T09:06:29.394Z,23.20
2018-07-03T09:08:57.705Z,23.10
2018-07-03T09:11:26.019Z,23.20
2018-07-03T10:17:43.077Z,22.90
2018-07-03T10:25:57.434Z,23.30
2018-07-03T10:28:25.745Z,23.80
2018-07-03T10:30:54.069Z,24.00
2018-07-03T10:33:22.534Z,24.10
2018-07-03T10:35:50.883Z,24.40
2018-07-03T10:38:19.236Z,24.60
2018-07-03T10:40:47.569Z,24.90
2018-07-03T10:43:15.852Z,25.00
2018-07-03T10:45:44.194Z,25.20
2018-07-03T10:48:12.512Z,25.30
2018-07-03T10:50:40.887Z,25.40
2018-07-03T10:53:09.233Z,25.50
2018-07-03T10:55:37.568Z,25.70
2018-07-03T10:58:05.840Z,25.50
2018-07-03T11:00:34.114Z,25.70
2018-07-03T11:03:02.391Z,25.90
2018-07-03T11:05:30.697Z,25.90
2018-07-03T11:07:59.005Z,26.30
2018-07-03T11:10:27.302Z,26.10
2018-07-03T11:13:13.958Z,26.20
2018-07-03T11:21:28.348Z,26.00
2018-07-03T11:26:49.561Z,26.10
2018-07-03T11:29:17.892Z,26.40
2018-07-03T11:31:46.207Z,26.20
2018-07-03T11:34:14.530Z,25.90
2018-07-03T11:36:42.917Z,25.70
2018-07-03T11:39:11.197Z,25.80
2018-07-03T11:41:39.532Z,25.70
2018-07-03T11:44:07.846Z,25.80
2018-07-03T11:46:36.280Z,25.80
2018-07-03T11:49:04.516Z,25.90
2018-07-03T11:51:32.837Z,25.80
2018-07-03T11:54:01.180Z,25.90
2018-07-03T11:56:29.453Z,25.70
2018-07-03T11:58:57.745Z,26.10
2018-07-03T12:01:26.219Z,26.10
2018-07-03T12:03:54.515Z,26.10
2018-07-03T12:06:22.837Z,26.40
2018-07-03T12:08:51.154Z,26.40
2018-07-03T12:11:19.509Z,26.60
2018-07-03T12:13:47.781Z,26.30
2018-07-03T12:16:16.129Z,25.90
2018-07-03T12:18:49.743Z,25.90
2018-07-03T12:21:18.168Z,26.10
2018-07-03T13:12:16.721Z,26.60
2018-07-03T13:23:49.489Z,26.60
2018-07-03T14:08:56.617Z,26.70
2018-07-03T14:11:24.865Z,27.10
2018-07-03T14:13:53.430Z,27.20
2018-07-03T14:25:11.709Z,27.50
2018-07-03T14:27:40.034Z,27.50
2018-07-03T14:30:08.343Z,27.50
2018-07-03T14:32:36.657Z,27.60
2018-07-03T14:35:04.989Z,27.80
2018-07-03T14:37:33.302Z,27.70
2018-07-03T14:40:01.658Z,27.70
2018-07-03T14:42:29.986Z,27.40
2018-07-03T14:44:58.309Z,27.70
2018-07-03T14:47:26.638Z,28.20
2018-07-03T14:49:54.957Z,28.10
2018-07-03T14:52:23.284Z,27.40
2018-07-03T14:54:51.665Z,27.40
2018-07-03T14:57:20.007Z,27.70
2018-07-03T14:59:48.306Z,27.60
2018-07-03T15:02:16.656Z,27.50
2018-07-03T15:04:44.925Z,27.10
2018-07-03T15:07:13.201Z,27.00
2018-07-03T15:09:41.483Z,27.00
2018-07-03T15:17:09.367Z,27.00
2018-07-03T15:19:56.228Z,27.20
2018-07-03T15:22:24.541Z,27.10
2018-07-03T15:27:45.769Z,27.10
2018-07-03T15:30:16.957Z,27.50
2018-07-03T15:32:45.256Z,27.50
2018-07-03T15:35:13.537Z,27.30
2018-07-03T15:37:41.842Z,27.40
2018-07-03T15:40:10.170Z,27.20
2018-07-03T15:42:38.452Z,27.10
2018-07-03T15:45:09.026Z,27.20
2018-07-03T15:47:37.277Z,27.20
2018-07-03T15:50:06.123Z,27.00
2018-07-03T15:52:34.418Z,26.90
2018-07-03T15:55:02.695Z,26.80
2018-07-03T15:57:30.998Z,26.90
2018-07-03T15:59:59.301Z,27.10
2018-07-03T16:02:27.606Z,26.90
2018-07-03T16:05:08.662Z,26.90
2018-07-03T16:08:48.954Z,27.10
2018-07-03T16:11:17.274Z,26.70
2018-07-03T16:22:43.335Z,26.90
2018-07-03T17:13:41.506Z,25.80
2018-07-03T17:16:09.809Z,25.60
2018-07-03T17:18:55.598Z,25.50
2018-07-03T17:21:36.149Z,25.70
2018-07-03T17:24:04.509Z,25.50
2018-07-03T17:26:32.842Z,25.60
2018-07-03T17:29:01.181Z,25.60
2018-07-03T17:31:29.506Z,25.60
2018-07-03T17:33:57.866Z,25.30
2018-07-03T17:36:26.190Z,25.20
2018-07-03T17:38:54.534Z,25.10
2018-07-03T17:41:34.057Z,24.80
2018-07-03T17:44:14.988Z,24.90
2018-07-03T17:46:43.327Z,24.70
2018-07-03T17:49:11.608Z,24.70
2018-07-03T17:51:39.893Z,24.60
2018-07-03T17:54:08.207Z,24.40
2018-07-03T17:56:36.472Z,24.40
2018-07-03T17:59:04.965Z,24.30
2018-07-03T18:01:33.234Z,24.20
2018-07-03T18:04:01.523Z,24.10
2018-07-03T18:06:29.798Z,24.00
2018-07-03T18:08:58.061Z,23.90
2018-07-03T18:11:26.337Z,23.90
2018-07-03T18:13:54.632Z,24.00
2018-07-03T18:16:28.726Z,23.70
2018-07-03T18:25:01.723Z,23.30
2018-07-03T19:13:03.549Z,20.80
2018-07-03T19:15:34.349Z,20.70
2018-07-03T19:32:07.474Z,20.50
2018-07-03T19:34:35.796Z,20.20
2018-07-03T19:37:04.110Z,20.10
2018-07-03T19:39:32.405Z,20.10
2018-07-03T19:42:00.694Z,20.10
2018-07-03T19:44:28.984Z,20.00
2018-07-03T19:46:57.262Z,19.90
2018-07-03T19:49:25.557Z,19.90
2018-07-03T19:51:53.848Z,19.80
2018-07-03T19:54:22.109Z,19.80
2018-07-03T19:56:50.537Z,19.70
2018-07-03T19:59:18.809Z,19.70
2018-07-03T20:01:47.094Z,19.70
2018-07-03T20:04:15.401Z,19.70
2018-07-03T20:06:43.656Z,19.50
2018-07-03T20:09:12.897Z,19.40
2018-07-03T20:11:41.174Z,19.40
2018-07-03T20:17:02.193Z,19.10
2018-07-03T20:22:34.771Z,19.00
2018-07-03T21:25:24.053Z,17.90
2018-07-03T21:27:52.401Z,17.80
2018-07-03T21:30:20.733Z,17.80
2018-07-03T21:32:49.061Z,17.80
2018-07-03T21:35:17.399Z,17.80
2018-07-03T21:37:45.714Z,17.80
2018-07-03T21:40:14.043Z,17.70
2018-07-03T21:42:42.338Z,17.70
2018-07-03T21:45:10.663Z,17.60
2018-07-03T21:47:39.009Z,17.60
2018-07-03T21:50:07.383Z,17.60
2018-07-03T21:52:35.681Z,17.60
2018-07-03T21:55:04.019Z,17.60
2018-07-03T21:57:32.303Z,17.50
2018-07-03T22:00:00.646Z,17.60
2018-07-03T22:02:28.967Z,17.50
2018-07-03T22:04:57.242Z,17.50
2018-07-03T22:07:25.517Z,17.40
2018-07-03T22:09:53.817Z,17.30
2018-07-03T22:12:22.086Z,17.20
2018-07-03T22:14:50.407Z,17.10
2018-07-03T22:17:18.686Z,17.20
2018-07-03T22:22:40.090Z,17.20
2018-07-03T23:25:14.989Z,16.40
2018-07-03T23:27:43.306Z,16.50
2018-07-03T23:30:11.626Z,16.40
2018-07-03T23:32:39.946Z,16.50
2018-07-03T23:35:08.269Z,16.40
2018-07-03T23:37:36.603Z,16.30
2018-07-03T23:40:10.183Z,16.30
2018-07-03T23:42:38.502Z,16.10
2018-07-03T23:45:06.830Z,16.00
2018-07-03T23:47:46.467Z,16.10
2018-07-03T23:50:25.881Z,16.20
2018-07-03T23:53:05.265Z,16.30
2018-07-03T23:55:44.786Z,16.20
2018-07-03T23:58:24.272Z,16.20
